sensor_id;sensor_type;location;lat;lon;timestamp;P1;durP1;ratioP1;P2;durP2;ratioP2
26750;SDS011;14345;48.272;25.926;2023-10-13T00:02:11;16.85;;;10.23;;
26750;SDS011;14345;48.272;25.926;2023-10-13T00:04:39;20.65;;;10.45;;
26750;SDS011;14345;48.272;25.926;2023-10-13T00:07:07;19.42;;;11.02;;
26750;SDS011;14345;48.272;25.926;2023-10-13T00:09:34;22.13;;;12.88;;
26750;SDS011;14345;48.272;25.926;2023-10-13T00:12:06;37.05;;;19.65;;
26750;SDS011;14345;48.272;25.926;2023-10-13T00:14:38;40.42;;;24.02;;
26750;SDS011;14345;48.272;25.926;2023-10-13T00:17:06;47.75;;;26.58;;
26750;SDS011;14345;48.272;25.926;2023-10-13T00:19:36;47.95;;;25.52;;
26750;SDS011;14345;48.272;25.926;2023-10-13T00:22:09;44.60;;;25.77;;
26750;SDS011;14345;48.272;25.926;2023-10-13T00:24:36;46.67;;;25.67;;
26750;SDS011;14345;48.272;25.926;2023-10-13T00:27:12;42.08;;;23.63;;
26750;SDS011;14345;48.272;25.926;2023-10-13T00:30:02;44.50;;;24.58;;
26750;SDS011;14345;48.272;25.926;2023-10-13T00:32:49;38.83;;;22.52;;
26750;SDS011;14345;48.272;25.926;2023-10-13T00:35:20;39.40;;;22.45;;
26750;SDS011;14345;48.272;25.926;2023-10-13T00:38:04;36.67;;;20.77;;
26750;SDS011;14345;48.272;25.926;2023-10-13T00:40:42;34.13;;;19.77;;
26750;SDS011;14345;48.272;25.926;2023-10-13T00:43:09;30.33;;;19.08;;
26750;SDS011;14345;48.272;25.926;2023-10-13T00:45:45;28.55;;;16.90;;
26750;SDS011;14345;48.272;25.926;2023-10-13T00:48:31;27.88;;;16.70;;
26750;SDS011;14345;48.272;25.926;2023-10-13T00:50:59;29.63;;;16.15;;
26750;SDS011;14345;48.272;25.926;2023-10-13T00:53:28;26.40;;;15.32;;
26750;SDS011;14345;48.272;25.926;2023-10-13T00:55:54;24.95;;;13.32;;
26750;SDS011;14345;48.272;25.926;2023-10-13T00:58:23;21.15;;;12.18;;
26750;SDS011;14345;48.272;25.926;2023-10-13T01:00:52;22.67;;;11.02;;
26750;SDS011;14345;48.272;25.926;2023-10-13T01:03:24;16.00;;;9.50;;
26750;SDS011;14345;48.272;25.926;2023-10-13T01:05:56;16.30;;;8.85;;
26750;SDS011;14345;48.272;25.926;2023-10-13T01:08:33;19.67;;;8.68;;
26750;SDS011;14345;48.272;25.926;2023-10-13T01:11:02;14.07;;;7.75;;
26750;SDS011;14345;48.272;25.926;2023-10-13T01:13:31;15.55;;;8.65;;
26750;SDS011;14345;48.272;25.926;2023-10-13T01:16:01;13.95;;;7.53;;
26750;SDS011;14345;48.272;25.926;2023-10-13T01:18:27;11.45;;;7.10;;
26750;SDS011;14345;48.272;25.926;2023-10-13T01:20:54;10.63;;;7.05;;
26750;SDS011;14345;48.272;25.926;2023-10-13T01:23:24;13.55;;;7.20;;
26750;SDS011;14345;48.272;25.926;2023-10-13T01:25:53;13.15;;;6.43;;
26750;SDS011;14345;48.272;25.926;2023-10-13T01:28:19;11.77;;;7.22;;
26750;SDS011;14345;48.272;25.926;2023-10-13T01:30:47;11.85;;;6.95;;
26750;SDS011;14345;48.272;25.926;2023-10-13T01:33:17;11.27;;;6.55;;
26750;SDS011;14345;48.272;25.926;2023-10-13T01:35:51;12.18;;;6.35;;
26750;SDS011;14345;48.272;25.926;2023-10-13T01:38:18;11.25;;;7.30;;
26750;SDS011;14345;48.272;25.926;2023-10-13T01:40:45;14.65;;;6.28;;
26750;SDS011;14345;48.272;25.926;2023-10-13T01:43:16;12.50;;;6.75;;
26750;SDS011;14345;48.272;25.926;2023-10-13T01:45:43;13.65;;;6.90;;
26750;SDS011;14345;48.272;25.926;2023-10-13T01:48:12;11.80;;;6.50;;
26750;SDS011;14345;48.272;25.926;2023-10-13T01:50:44;15.57;;;7.13;;
26750;SDS011;14345;48.272;25.926;2023-10-13T01:53:13;15.88;;;7.45;;
26750;SDS011;14345;48.272;25.926;2023-10-13T01:55:42;11.35;;;6.43;;
26750;SDS011;14345;48.272;25.926;2023-10-13T01:58:11;16.70;;;7.65;;
26750;SDS011;14345;48.272;25.926;2023-10-13T02:00:41;10.10;;;6.20;;
26750;SDS011;14345;48.272;25.926;2023-10-13T02:03:11;9.70;;;6.78;;
26750;SDS011;14345;48.272;25.926;2023-10-13T02:05:44;9.77;;;4.73;;
26750;SDS011;14345;48.272;25.926;2023-10-13T02:08:14;10.52;;;5.97;;
26750;SDS011;14345;48.272;25.926;2023-10-13T02:10:58;11.20;;;5.68;;
26750;SDS011;14345;48.272;25.926;2023-10-13T02:13:26;11.50;;;5.40;;
26750;SDS011;14345;48.272;25.926;2023-10-13T02:15:55;15.20;;;6.95;;
26750;SDS011;14345;48.272;25.926;2023-10-13T02:18:22;9.65;;;5.68;;
26750;SDS011;14345;48.272;25.926;2023-10-13T02:21:01;9.82;;;5.45;;
26750;SDS011;14345;48.272;25.926;2023-10-13T02:23:29;9.10;;;5.10;;
26750;SDS011;14345;48.272;25.926;2023-10-13T02:25:56;9.48;;;4.70;;
26750;SDS011;14345;48.272;25.926;2023-10-13T02:28:42;11.43;;;4.93;;
26750;SDS011;14345;48.272;25.926;2023-10-13T02:31:09;12.13;;;5.10;;
26750;SDS011;14345;48.272;25.926;2023-10-13T02:33:36;9.57;;;4.57;;
26750;SDS011;14345;48.272;25.926;2023-10-13T02:36:10;8.25;;;4.50;;
26750;SDS011;14345;48.272;25.926;2023-10-13T02:38:37;6.78;;;4.30;;
26750;SDS011;14345;48.272;25.926;2023-10-13T02:41:04;8.82;;;4.72;;
26750;SDS011;14345;48.272;25.926;2023-10-13T02:43:36;7.00;;;4.05;;
26750;SDS011;14345;48.272;25.926;2023-10-13T02:46:03;9.75;;;4.70;;
26750;SDS011;14345;48.272;25.926;2023-10-13T02:48:29;8.00;;;4.25;;
26750;SDS011;14345;48.272;25.926;2023-10-13T02:51:11;10.38;;;4.60;;
26750;SDS011;14345;48.272;25.926;2023-10-13T02:53:46;6.32;;;4.10;;
26750;SDS011;14345;48.272;25.926;2023-10-13T02:56:13;6.35;;;4.25;;
26750;SDS011;14345;48.272;25.926;2023-10-13T02:58:45;8.90;;;3.92;;
26750;SDS011;14345;48.272;25.926;2023-10-13T03:01:17;7.43;;;3.88;;
26750;SDS011;14345;48.272;25.926;2023-10-13T03:03:53;8.93;;;3.58;;
26750;SDS011;14345;48.272;25.926;2023-10-13T03:06:21;9.45;;;4.72;;
26750;SDS011;14345;48.272;25.926;2023-10-13T03:08:49;7.18;;;4.40;;
26750;SDS011;14345;48.272;25.926;2023-10-13T03:11:15;9.63;;;4.95;;
26750;SDS011;14345;48.272;25.926;2023-10-13T03:13:46;8.80;;;4.10;;
26750;SDS011;14345;48.272;25.926;2023-10-13T03:16:15;9.27;;;4.63;;
26750;SDS011;14345;48.272;25.926;2023-10-13T03:18:48;9.75;;;4.70;;
26750;SDS011;14345;48.272;25.926;2023-10-13T03:21:21;9.75;;;3.88;;
26750;SDS011;14345;48.272;25.926;2023-10-13T03:23:55;6.50;;;3.78;;
26750;SDS011;14345;48.272;25.926;2023-10-13T03:26:21;8.40;;;4.13;;
26750;SDS011;14345;48.272;25.926;2023-10-13T03:28:47;10.63;;;4.72;;
26750;SDS011;14345;48.272;25.926;2023-10-13T03:31:20;7.05;;;4.55;;
26750;SDS011;14345;48.272;25.926;2023-10-13T03:33:52;9.88;;;4.65;;
26750;SDS011;14345;48.272;25.926;2023-10-13T03:36:25;13.05;;;6.55;;
26750;SDS011;14345;48.272;25.926;2023-10-13T03:39:17;12.50;;;6.75;;
26750;SDS011;14345;48.272;25.926;2023-10-13T03:41:43;7.72;;;5.38;;
26750;SDS011;14345;48.272;25.926;2023-10-13T03:44:10;12.35;;;5.60;;
26750;SDS011;14345;48.272;25.926;2023-10-13T03:46:42;9.52;;;5.35;;
26750;SDS011;14345;48.272;25.926;2023-10-13T03:49:12;8.30;;;5.13;;
26750;SDS011;14345;48.272;25.926;2023-10-13T03:51:39;11.30;;;5.85;;
26750;SDS011;14345;48.272;25.926;2023-10-13T03:54:05;12.13;;;6.70;;
26750;SDS011;14345;48.272;25.926;2023-10-13T03:56:34;8.30;;;5.57;;
26750;SDS011;14345;48.272;25.926;2023-10-13T03:59:04;11.02;;;5.40;;
26750;SDS011;14345;48.272;25.926;2023-10-13T04:01:51;11.38;;;5.50;;
26750;SDS011;14345;48.272;25.926;2023-10-13T04:04:17;8.18;;;4.65;;
26750;SDS011;14345;48.272;25.926;2023-10-13T04:06:55;11.40;;;5.47;;
26750;SDS011;14345;48.272;25.926;2023-10-13T04:09:35;11.77;;;6.25;;
26750;SDS011;14345;48.272;25.926;2023-10-13T04:12:04;11.95;;;5.25;;
26750;SDS011;14345;48.272;25.926;2023-10-13T04:14:31;9.15;;;5.35;;
26750;SDS011;14345;48.272;25.926;2023-10-13T04:17:16;7.18;;;4.65;;
26750;SDS011;14345;48.272;25.926;2023-10-13T04:19:51;6.95;;;4.40;;
26750;SDS011;14345;48.272;25.926;2023-10-13T04:22:36;6.70;;;4.38;;
26750;SDS011;14345;48.272;25.926;2023-10-13T04:28:15;12.70;;;4.68;;
26750;SDS011;14345;48.272;25.926;2023-10-13T04:31:02;10.15;;;4.90;;
26750;SDS011;14345;48.272;25.926;2023-10-13T04:33:38;7.85;;;4.22;;
26750;SDS011;14345;48.272;25.926;2023-10-13T04:36:14;6.53;;;4.10;;
26750;SDS011;14345;48.272;25.926;2023-10-13T04:39:06;7.47;;;4.13;;
26750;SDS011;14345;48.272;25.926;2023-10-13T04:41:39;9.55;;;4.57;;
26750;SDS011;14345;48.272;25.926;2023-10-13T04:44:22;7.65;;;3.92;;
26750;SDS011;14345;48.272;25.926;2023-10-13T04:46:55;7.15;;;4.22;;
26750;SDS011;14345;48.272;25.926;2023-10-13T04:49:25;7.68;;;3.90;;
26750;SDS011;14345;48.272;25.926;2023-10-13T04:51:58;7.10;;;4.00;;
26750;SDS011;14345;48.272;25.926;2023-10-13T04:54:34;6.28;;;4.38;;
26750;SDS011;14345;48.272;25.926;2023-10-13T04:57:10;6.68;;;4.22;;
26750;SDS011;14345;48.272;25.926;2023-10-13T04:59:49;6.22;;;3.35;;
26750;SDS011;14345;48.272;25.926;2023-10-13T05:02:34;9.68;;;4.22;;
26750;SDS011;14345;48.272;25.926;2023-10-13T05:05:22;4.93;;;3.60;;
26750;SDS011;14345;48.272;25.926;2023-10-13T05:07:57;6.82;;;3.72;;
26750;SDS011;14345;48.272;25.926;2023-10-13T05:10:42;7.78;;;4.35;;
26750;SDS011;14345;48.272;25.926;2023-10-13T05:13:26;11.07;;;4.28;;
26750;SDS011;14345;48.272;25.926;2023-10-13T05:16:11;7.45;;;4.28;;
26750;SDS011;14345;48.272;25.926;2023-10-13T05:18:56;9.20;;;5.22;;
26750;SDS011;14345;48.272;25.926;2023-10-13T05:21:40;8.32;;;4.90;;
26750;SDS011;14345;48.272;25.926;2023-10-13T05:24:25;7.47;;;5.40;;
26750;SDS011;14345;48.272;25.926;2023-10-13T05:27:09;9.57;;;6.55;;
26750;SDS011;14345;48.272;25.926;2023-10-13T05:29:54;10.40;;;7.28;;
26750;SDS011;14345;48.272;25.926;2023-10-13T05:32:43;9.10;;;6.32;;
26750;SDS011;14345;48.272;25.926;2023-10-13T05:35:30;12.88;;;7.68;;
26750;SDS011;14345;48.272;25.926;2023-10-13T05:38:15;14.48;;;7.07;;
26750;SDS011;14345;48.272;25.926;2023-10-13T05:41:03;11.68;;;7.57;;
26750;SDS011;14345;48.272;25.926;2023-10-13T05:43:48;15.48;;;10.10;;
26750;SDS011;14345;48.272;25.926;2023-10-13T05:46:33;14.18;;;9.52;;
26750;SDS011;14345;48.272;25.926;2023-10-13T05:49:02;14.00;;;9.55;;
26750;SDS011;14345;48.272;25.926;2023-10-13T05:51:41;18.10;;;9.25;;
26750;SDS011;14345;48.272;25.926;2023-10-13T05:54:07;16.77;;;9.98;;
26750;SDS011;14345;48.272;25.926;2023-10-13T05:56:49;14.55;;;8.98;;
26750;SDS011;14345;48.272;25.926;2023-10-13T05:59:34;10.25;;;7.53;;
26750;SDS011;14345;48.272;25.926;2023-10-13T06:02:20;10.70;;;6.30;;
26750;SDS011;14345;48.272;25.926;2023-10-13T06:05:05;9.70;;;6.15;;
26750;SDS011;14345;48.272;25.926;2023-10-13T06:07:50;8.50;;;5.55;;
26750;SDS011;14345;48.272;25.926;2023-10-13T06:10:34;9.52;;;5.20;;
26750;SDS011;14345;48.272;25.926;2023-10-13T06:13:19;10.23;;;4.65;;
26750;SDS011;14345;48.272;25.926;2023-10-13T06:16:04;7.55;;;4.88;;
26750;SDS011;14345;48.272;25.926;2023-10-13T06:18:49;9.35;;;4.88;;
26750;SDS011;14345;48.272;25.926;2023-10-13T06:21:34;8.15;;;4.78;;
26750;SDS011;14345;48.272;25.926;2023-10-13T06:24:18;8.00;;;4.38;;
26750;SDS011;14345;48.272;25.926;2023-10-13T06:27:03;6.68;;;4.35;;
26750;SDS011;14345;48.272;25.926;2023-10-13T06:29:48;10.40;;;4.55;;
26750;SDS011;14345;48.272;25.926;2023-10-13T06:32:14;12.18;;;4.95;;
26750;SDS011;14345;48.272;25.926;2023-10-13T06:34:41;9.82;;;4.25;;
26750;SDS011;14345;48.272;25.926;2023-10-13T06:37:19;7.70;;;4.50;;
26750;SDS011;14345;48.272;25.926;2023-10-13T06:39:55;9.45;;;5.25;;
26750;SDS011;14345;48.272;25.926;2023-10-13T06:42:28;9.98;;;4.95;;
26750;SDS011;14345;48.272;25.926;2023-10-13T06:44:54;8.02;;;4.28;;
26750;SDS011;14345;48.272;25.926;2023-10-13T06:47:22;10.32;;;5.55;;
26750;SDS011;14345;48.272;25.926;2023-10-13T06:49:49;10.10;;;5.32;;
26750;SDS011;14345;48.272;25.926;2023-10-13T06:52:20;10.80;;;6.10;;
26750;SDS011;14345;48.272;25.926;2023-10-13T06:54:54;11.93;;;5.40;;
26750;SDS011;14345;48.272;25.926;2023-10-13T06:57:20;9.20;;;6.13;;
26750;SDS011;14345;48.272;25.926;2023-10-13T06:59:47;9.27;;;4.72;;
26750;SDS011;14345;48.272;25.926;2023-10-13T07:02:13;7.63;;;4.47;;
26750;SDS011;14345;48.272;25.926;2023-10-13T07:04:48;11.13;;;5.15;;
26750;SDS011;14345;48.272;25.926;2023-10-13T07:07:21;6.63;;;4.13;;
26750;SDS011;14345;48.272;25.926;2023-10-13T07:09:48;11.90;;;5.05;;
26750;SDS011;14345;48.272;25.926;2023-10-13T07:12:20;7.20;;;4.30;;
26750;SDS011;14345;48.272;25.926;2023-10-13T07:14:58;8.73;;;4.50;;
26750;SDS011;14345;48.272;25.926;2023-10-13T07:17:50;8.85;;;4.90;;
26750;SDS011;14345;48.272;25.926;2023-10-13T07:20:27;6.65;;;4.30;;
26750;SDS011;14345;48.272;25.926;2023-10-13T07:22:53;9.73;;;4.90;;
26750;SDS011;14345;48.272;25.926;2023-10-13T07:25:29;10.27;;;5.05;;
26750;SDS011;14345;48.272;25.926;2023-10-13T07:28:00;14.07;;;5.20;;
26750;SDS011;14345;48.272;25.926;2023-10-13T07:30:26;9.60;;;4.70;;
26750;SDS011;14345;48.272;25.926;2023-10-13T07:32:53;6.45;;;3.78;;
26750;SDS011;14345;48.272;25.926;2023-10-13T07:35:23;10.55;;;4.35;;
26750;SDS011;14345;48.272;25.926;2023-10-13T07:37:56;12.20;;;4.65;;
26750;SDS011;14345;48.272;25.926;2023-10-13T07:40:25;7.88;;;4.03;;
26750;SDS011;14345;48.272;25.926;2023-10-13T07:42:51;7.95;;;3.88;;
26750;SDS011;14345;48.272;25.926;2023-10-13T07:45:17;12.05;;;4.50;;
26750;SDS011;14345;48.272;25.926;2023-10-13T07:47:46;6.63;;;4.22;;
26750;SDS011;14345;48.272;25.926;2023-10-13T07:50:13;8.15;;;4.18;;
26750;SDS011;14345;48.272;25.926;2023-10-13T07:52:39;6.93;;;4.30;;
26750;SDS011;14345;48.272;25.926;2023-10-13T07:55:23;9.07;;;3.78;;
26750;SDS011;14345;48.272;25.926;2023-10-13T07:57:49;8.30;;;3.65;;
26750;SDS011;14345;48.272;25.926;2023-10-13T08:00:22;6.20;;;4.28;;
26750;SDS011;14345;48.272;25.926;2023-10-13T08:03:12;9.65;;;5.03;;
26750;SDS011;14345;48.272;25.926;2023-10-13T08:05:44;7.50;;;3.80;;
26750;SDS011;14345;48.272;25.926;2023-10-13T08:08:23;6.22;;;3.50;;
26750;SDS011;14345;48.272;25.926;2023-10-13T08:11:00;6.40;;;3.60;;
26750;SDS011;14345;48.272;25.926;2023-10-13T08:13:35;7.25;;;4.05;;
26750;SDS011;14345;48.272;25.926;2023-10-13T08:16:02;7.13;;;3.33;;
26750;SDS011;14345;48.272;25.926;2023-10-13T08:18:35;11.63;;;3.50;;
26750;SDS011;14345;48.272;25.926;2023-10-13T08:21:04;8.38;;;3.63;;
26750;SDS011;14345;48.272;25.926;2023-10-13T08:23:31;7.07;;;3.33;;
26750;SDS011;14345;48.272;25.926;2023-10-13T08:26:15;7.22;;;3.75;;
26750;SDS011;14345;48.272;25.926;2023-10-13T08:28:55;7.85;;;3.83;;
26750;SDS011;14345;48.272;25.926;2023-10-13T08:31:21;8.20;;;3.85;;
26750;SDS011;14345;48.272;25.926;2023-10-13T08:33:49;4.97;;;3.67;;
26750;SDS011;14345;48.272;25.926;2023-10-13T08:36:16;5.55;;;3.60;;
26750;SDS011;14345;48.272;25.926;2023-10-13T08:38:56;7.28;;;3.63;;
26750;SDS011;14345;48.272;25.926;2023-10-13T08:41:23;8.50;;;4.10;;
26750;SDS011;14345;48.272;25.926;2023-10-13T08:43:51;5.95;;;3.70;;
26750;SDS011;14345;48.272;25.926;2023-10-13T08:46:19;10.52;;;4.10;;
26750;SDS011;14345;48.272;25.926;2023-10-13T08:48:55;9.18;;;4.35;;
26750;SDS011;14345;48.272;25.926;2023-10-13T08:51:39;11.52;;;4.90;;
26750;SDS011;14345;48.272;25.926;2023-10-13T08:54:13;8.93;;;4.40;;
26750;SDS011;14345;48.272;25.926;2023-10-13T08:56:59;7.40;;;3.97;;
26750;SDS011;14345;48.272;25.926;2023-10-13T08:59:45;7.13;;;4.07;;
26750;SDS011;14345;48.272;25.926;2023-10-13T09:02:19;4.85;;;3.58;;
26750;SDS011;14345;48.272;25.926;2023-10-13T09:04:47;8.75;;;4.70;;
26750;SDS011;14345;48.272;25.926;2023-10-13T09:07:24;9.10;;;4.38;;
26750;SDS011;14345;48.272;25.926;2023-10-13T09:09:51;6.82;;;4.72;;
26750;SDS011;14345;48.272;25.926;2023-10-13T09:12:20;6.70;;;4.30;;
26750;SDS011;14345;48.272;25.926;2023-10-13T09:14:54;8.90;;;4.78;;
26750;SDS011;14345;48.272;25.926;2023-10-13T09:17:27;7.33;;;3.93;;
26750;SDS011;14345;48.272;25.926;2023-10-13T09:19:58;11.68;;;5.35;;
26750;SDS011;14345;48.272;25.926;2023-10-13T09:22:28;8.65;;;5.20;;
26750;SDS011;14345;48.272;25.926;2023-10-13T09:25:01;9.20;;;4.63;;
26750;SDS011;14345;48.272;25.926;2023-10-13T09:27:29;10.82;;;5.28;;
26750;SDS011;14345;48.272;25.926;2023-10-13T09:30:00;5.90;;;4.13;;
26750;SDS011;14345;48.272;25.926;2023-10-13T09:32:46;8.80;;;4.88;;
26750;SDS011;14345;48.272;25.926;2023-10-13T09:35:20;11.07;;;5.72;;
26750;SDS011;14345;48.272;25.926;2023-10-13T09:37:50;6.55;;;4.25;;
26750;SDS011;14345;48.272;25.926;2023-10-13T09:40:17;8.63;;;4.88;;
26750;SDS011;14345;48.272;25.926;2023-10-13T09:43:03;10.23;;;4.10;;
26750;SDS011;14345;48.272;25.926;2023-10-13T09:45:32;6.57;;;3.90;;
26750;SDS011;14345;48.272;25.926;2023-10-13T09:48:03;7.03;;;4.38;;
26750;SDS011;14345;48.272;25.926;2023-10-13T09:50:35;6.57;;;4.07;;
26750;SDS011;14345;48.272;25.926;2023-10-13T09:53:03;7.38;;;3.42;;
26750;SDS011;14345;48.272;25.926;2023-10-13T09:55:38;6.20;;;3.60;;
26750;SDS011;14345;48.272;25.926;2023-10-13T09:58:10;5.63;;;3.45;;
26750;SDS011;14345;48.272;25.926;2023-10-13T10:00:43;6.82;;;3.70;;
26750;SDS011;14345;48.272;25.926;2023-10-13T10:03:11;9.60;;;3.55;;
26750;SDS011;14345;48.272;25.926;2023-10-13T10:06:01;7.75;;;3.72;;
26750;SDS011;14345;48.272;25.926;2023-10-13T10:08:42;5.15;;;3.15;;
26750;SDS011;14345;48.272;25.926;2023-10-13T10:11:23;7.10;;;3.90;;
26750;SDS011;14345;48.272;25.926;2023-10-13T10:13:53;8.63;;;3.85;;
26750;SDS011;14345;48.272;25.926;2023-10-13T10:19:11;6.00;;;4.03;;
26750;SDS011;14345;48.272;25.926;2023-10-13T10:21:37;7.43;;;3.85;;
26750;SDS011;14345;48.272;25.926;2023-10-13T10:24:15;5.45;;;3.78;;
26750;SDS011;14345;48.272;25.926;2023-10-13T10:26:53;8.33;;;4.20;;
26750;SDS011;14345;48.272;25.926;2023-10-13T10:29:19;7.75;;;4.75;;
26750;SDS011;14345;48.272;25.926;2023-10-13T10:31:45;9.00;;;5.25;;
26750;SDS011;14345;48.272;25.926;2023-10-13T10:34:14;8.98;;;4.68;;
26750;SDS011;14345;48.272;25.926;2023-10-13T10:36:46;10.05;;;5.22;;
26750;SDS011;14345;48.272;25.926;2023-10-13T10:39:12;9.55;;;4.82;;
26750;SDS011;14345;48.272;25.926;2023-10-13T10:41:40;9.43;;;5.32;;
26750;SDS011;14345;48.272;25.926;2023-10-13T10:44:19;10.73;;;4.95;;
26750;SDS011;14345;48.272;25.926;2023-10-13T10:47:08;10.60;;;5.03;;
26750;SDS011;14345;48.272;25.926;2023-10-13T10:49:36;9.70;;;5.43;;
26750;SDS011;14345;48.272;25.926;2023-10-13T10:52:02;8.20;;;4.82;;
26750;SDS011;14345;48.272;25.926;2023-10-13T10:54:32;7.82;;;4.75;;
26750;SDS011;14345;48.272;25.926;2023-10-13T10:56:59;9.70;;;5.63;;
26750;SDS011;14345;48.272;25.926;2023-10-13T10:59:42;9.57;;;5.63;;
26750;SDS011;14345;48.272;25.926;2023-10-13T11:02:08;8.57;;;4.72;;
26750;SDS011;14345;48.272;25.926;2023-10-13T11:04:34;11.95;;;5.20;;
26750;SDS011;14345;48.272;25.926;2023-10-13T11:07:06;9.10;;;4.57;;
26750;SDS011;14345;48.272;25.926;2023-10-13T11:09:34;9.10;;;5.00;;
26750;SDS011;14345;48.272;25.926;2023-10-13T11:14:39;15.07;;;9.45;;
26750;SDS011;14345;48.272;25.926;2023-10-13T11:17:05;15.95;;;11.52;;
26750;SDS011;14345;48.272;25.926;2023-10-13T11:19:46;12.20;;;7.00;;
26750;SDS011;14345;48.272;25.926;2023-10-13T11:22:13;12.13;;;5.30;;
26750;SDS011;14345;48.272;25.926;2023-10-13T11:24:57;13.45;;;5.90;;
26750;SDS011;14345;48.272;25.926;2023-10-13T11:27:33;18.30;;;12.57;;
26750;SDS011;14345;48.272;25.926;2023-10-13T11:30:14;8.77;;;6.32;;
26750;SDS011;14345;48.272;25.926;2023-10-13T11:35:49;7.85;;;4.22;;
26750;SDS011;14345;48.272;25.926;2023-10-13T11:38:27;8.73;;;4.15;;
26750;SDS011;14345;48.272;25.926;2023-10-13T11:41:14;7.15;;;3.90;;
26750;SDS011;14345;48.272;25.926;2023-10-13T11:46:16;7.95;;;3.28;;
26750;SDS011;14345;48.272;25.926;2023-10-13T11:48:44;5.95;;;2.97;;
26750;SDS011;14345;48.272;25.926;2023-10-13T11:51:12;6.70;;;3.50;;
26750;SDS011;14345;48.272;25.926;2023-10-13T11:53:51;7.70;;;3.53;;
26750;SDS011;14345;48.272;25.926;2023-10-13T11:56:17;9.10;;;3.67;;
26750;SDS011;14345;48.272;25.926;2023-10-13T11:58:47;8.25;;;3.92;;
26750;SDS011;14345;48.272;25.926;2023-10-13T12:01:13;6.07;;;3.60;;
26750;SDS011;14345;48.272;25.926;2023-10-13T12:03:40;8.70;;;3.33;;
26750;SDS011;14345;48.272;25.926;2023-10-13T12:06:25;6.72;;;3.60;;
26750;SDS011;14345;48.272;25.926;2023-10-13T12:09:04;7.97;;;4.22;;
26750;SDS011;14345;48.272;25.926;2023-10-13T12:11:56;8.43;;;4.32;;
26750;SDS011;14345;48.272;25.926;2023-10-13T12:14:25;6.82;;;3.83;;
26750;SDS011;14345;48.272;25.926;2023-10-13T12:17:02;10.20;;;4.65;;
26750;SDS011;14345;48.272;25.926;2023-10-13T12:19:35;6.60;;;3.50;;
26750;SDS011;14345;48.272;25.926;2023-10-13T12:22:03;5.60;;;3.80;;
26750;SDS011;14345;48.272;25.926;2023-10-13T12:24:33;7.57;;;4.22;;
26750;SDS011;14345;48.272;25.926;2023-10-13T12:26:59;7.35;;;4.35;;
26750;SDS011;14345;48.272;25.926;2023-10-13T12:29:26;7.35;;;4.00;;
26750;SDS011;14345;48.272;25.926;2023-10-13T12:31:55;8.48;;;4.53;;
26750;SDS011;14345;48.272;25.926;2023-10-13T12:34:33;11.23;;;4.10;;
26750;SDS011;14345;48.272;25.926;2023-10-13T12:37:18;7.10;;;3.88;;
26750;SDS011;14345;48.272;25.926;2023-10-13T12:40:03;6.65;;;3.70;;
26750;SDS011;14345;48.272;25.926;2023-10-13T12:42:48;6.97;;;3.00;;
26750;SDS011;14345;48.272;25.926;2023-10-13T12:45:33;6.88;;;3.10;;
26750;SDS011;14345;48.272;25.926;2023-10-13T12:48:17;5.85;;;3.00;;
26750;SDS011;14345;48.272;25.926;2023-10-13T12:51:02;4.95;;;2.88;;
26750;SDS011;14345;48.272;25.926;2023-10-13T12:53:47;8.13;;;3.35;;
26750;SDS011;14345;48.272;25.926;2023-10-13T12:56:16;7.72;;;3.33;;
26750;SDS011;14345;48.272;25.926;2023-10-13T12:58:43;10.55;;;3.67;;
26750;SDS011;14345;48.272;25.926;2023-10-13T13:01:19;9.65;;;3.50;;
26750;SDS011;14345;48.272;25.926;2023-10-13T13:03:48;5.60;;;3.38;;
26750;SDS011;14345;48.272;25.926;2023-10-13T13:06:18;9.13;;;3.10;;
26750;SDS011;14345;48.272;25.926;2023-10-13T13:09:04;9.02;;;4.28;;
26750;SDS011;14345;48.272;25.926;2023-10-13T13:11:34;9.73;;;6.15;;
26750;SDS011;14345;48.272;25.926;2023-10-13T13:14:04;9.70;;;5.75;;
26750;SDS011;14345;48.272;25.926;2023-10-13T13:16:33;8.65;;;4.70;;
26750;SDS011;14345;48.272;25.926;2023-10-13T13:18:59;6.00;;;3.75;;
26750;SDS011;14345;48.272;25.926;2023-10-13T13:21:28;6.72;;;3.70;;
26750;SDS011;14345;48.272;25.926;2023-10-13T13:23:54;9.00;;;5.45;;
26750;SDS011;14345;48.272;25.926;2023-10-13T13:26:21;9.85;;;4.47;;
26750;SDS011;14345;48.272;25.926;2023-10-13T13:28:48;10.63;;;3.45;;
26750;SDS011;14345;48.272;25.926;2023-10-13T13:31:20;6.78;;;3.28;;
26750;SDS011;14345;48.272;25.926;2023-10-13T13:33:54;4.60;;;2.75;;
26750;SDS011;14345;48.272;25.926;2023-10-13T13:36:20;6.68;;;3.40;;
26750;SDS011;14345;48.272;25.926;2023-10-13T13:38:47;4.45;;;3.00;;
26750;SDS011;14345;48.272;25.926;2023-10-13T13:41:19;8.65;;;3.50;;
26750;SDS011;14345;48.272;25.926;2023-10-13T13:43:47;11.85;;;3.20;;
26750;SDS011;14345;48.272;25.926;2023-10-13T13:46:21;8.82;;;5.47;;
26750;SDS011;14345;48.272;25.926;2023-10-13T13:48:50;9.90;;;4.93;;
26750;SDS011;14345;48.272;25.926;2023-10-13T13:51:22;7.28;;;5.45;;
26750;SDS011;14345;48.272;25.926;2023-10-13T13:53:53;10.75;;;6.13;;
26750;SDS011;14345;48.272;25.926;2023-10-13T13:56:19;7.47;;;4.68;;
26750;SDS011;14345;48.272;25.926;2023-10-13T13:58:46;6.03;;;3.75;;
26750;SDS011;14345;48.272;25.926;2023-10-13T14:01:12;8.90;;;3.65;;
26750;SDS011;14345;48.272;25.926;2023-10-13T14:03:50;9.38;;;3.60;;
26750;SDS011;14345;48.272;25.926;2023-10-13T14:09:03;4.47;;;2.85;;
26750;SDS011;14345;48.272;25.926;2023-10-13T14:12:02;5.53;;;3.05;;
26750;SDS011;14345;48.272;25.926;2023-10-13T14:14:46;10.52;;;3.20;;
26750;SDS011;14345;48.272;25.926;2023-10-13T14:17:20;5.88;;;3.45;;
26750;SDS011;14345;48.272;25.926;2023-10-13T14:19:54;7.78;;;3.25;;
26750;SDS011;14345;48.272;25.926;2023-10-13T14:22:20;5.63;;;3.25;;
26750;SDS011;14345;48.272;25.926;2023-10-13T14:24:49;7.95;;;3.10;;
26750;SDS011;14345;48.272;25.926;2023-10-13T14:27:19;8.13;;;3.83;;
26750;SDS011;14345;48.272;25.926;2023-10-13T14:29:48;8.00;;;3.63;;
26750;SDS011;14345;48.272;25.926;2023-10-13T14:32:18;7.75;;;3.80;;
26750;SDS011;14345;48.272;25.926;2023-10-13T14:34:47;8.45;;;4.15;;
26750;SDS011;14345;48.272;25.926;2023-10-13T14:37:19;13.48;;;4.15;;
26750;SDS011;14345;48.272;25.926;2023-10-13T14:39:54;11.70;;;5.55;;
26750;SDS011;14345;48.272;25.926;2023-10-13T14:42:24;24.98;;;9.73;;
26750;SDS011;14345;48.272;25.926;2023-10-13T14:44:50;12.68;;;6.22;;
26750;SDS011;14345;48.272;25.926;2023-10-13T14:47:23;10.85;;;5.50;;
26750;SDS011;14345;48.272;25.926;2023-10-13T14:49:55;13.57;;;6.43;;
26750;SDS011;14345;48.272;25.926;2023-10-13T14:52:26;13.07;;;5.65;;
26750;SDS011;14345;48.272;25.926;2023-10-13T14:54:56;8.60;;;4.85;;
26750;SDS011;14345;48.272;25.926;2023-10-13T14:57:23;10.38;;;5.10;;
26750;SDS011;14345;48.272;25.926;2023-10-13T14:59:52;9.15;;;5.05;;
26750;SDS011;14345;48.272;25.926;2023-10-13T15:02:18;11.25;;;5.57;;
26750;SDS011;14345;48.272;25.926;2023-10-13T15:04:46;12.80;;;5.60;;
26750;SDS011;14345;48.272;25.926;2023-10-13T15:07:13;12.95;;;6.40;;
26750;SDS011;14345;48.272;25.926;2023-10-13T15:09:44;13.43;;;7.70;;
26750;SDS011;14345;48.272;25.926;2023-10-13T15:12:10;12.80;;;6.18;;
26750;SDS011;14345;48.272;25.926;2023-10-13T15:14:40;18.65;;;8.15;;
26750;SDS011;14345;48.272;25.926;2023-10-13T15:17:09;18.80;;;9.63;;
26750;SDS011;14345;48.272;25.926;2023-10-13T15:19:35;28.85;;;14.15;;
26750;SDS011;14345;48.272;25.926;2023-10-13T15:22:04;21.08;;;12.85;;